Walthourville, Georgia
Current Conditions -  °F | °C
As of 3:58 PM on Wednesday 26 Nov 2014 (Local Time) from KLHW Reporting Station
Clear Clear  
Wind Chill: 61°   Ceiling: Unl
Heat Index: 61°   Visibility: 10mi
Dew Point: 40°   Wind: 8mph
Humidity: 46%   Direction: 260°W
Pressure: 30.07"   Gusts: NA
Location:  31.77°N, 81.63°W
Report Text: KLHW 262058Z AUTO 26007KT 10SM CLR 16/04 A3007 RMK AO2 SLP186 T01590042 53004
Loading
Personal Weather Stations






























Interactive Weather Map New forecast layout! Learn more

10-Day Weather Forecast

Advertisements
Track Severe Weather on mobile